Latest Weather Observations for Lake Macquarie - Cooranbong

IDN60901

Issued at 6:51 pm EST Wednesday 28 June 2017 (issued every 10 minutes, with the page automatically refreshed every 10 minutes)

About weather observations | Map of Sydney area stations | Latest observations for Sydney area | Other Formats
Station Details ID: 061412 Name: LAKE MACQUARIE AWS Lat: -33.09 Lon: 151.46 Height: 6.0 m
Data from the previous 72 hours. | See also: Recent months at Lake Macquarie - Cooranbong
Date/Time
EST
Temp
°C
App
Temp
°C
Dew
Point
°C
Rel
Hum
%
Delta-T
°C
Wind Press
QNH
hPa
Press
MSL
hPa
Rain since
9am
mm
Dir  Spd
km/h
Gust
km/h
Spd
kts
Gust
kts
28/06:30pm 11.8 12.3 11.5 98 0.2 CALM 0 0 0 0 1021.7 1021.7 3.8
28/06:00pm 12.3 12.9 12.0 98 0.2 CALM 0 0 0 0 1021.5 1021.5 3.8
28/05:30pm 12.4 13.1 12.1 98 0.2 CALM 0 0 0 0 1021.5 1021.5 3.8
28/05:00pm 12.8 13.1 12.3 97 0.3 NNW 2 6 1 3 1021.4 1021.4 3.8
28/04:30pm 13.0 13.8 12.5 97 0.3 CALM 0 0 0 0 1021.6 1021.6 3.8
28/04:00pm 13.1 13.9 12.6 97 0.3 CALM 0 0 0 0 1021.8 1021.8 3.6
28/03:30pm 13.2 14.0 12.7 97 0.3 CALM 0 0 0 0 1021.9 1021.9 3.4
28/03:00pm 13.4 14.4 13.1 98 0.2 CALM 0 0 0 0 1021.9 1021.9 3.0
28/02:30pm 13.4 14.3 12.9 97 0.3 CALM 0 0 0 0 1021.8 1021.8 2.4
28/02:00pm 13.4 14.3 12.8 96 0.3 CALM 0 0 0 0 1021.8 1021.8 2.2
28/01:30pm 13.4 13.8 12.6 95 0.4 SSW 2 4 1 2 1021.8 1021.8 1.8
28/01:00pm 13.5 13.6 12.6 94 0.5 NNE 4 6 2 3 1021.8 1021.8 0.8
28/12:30pm 14.0 14.0 12.4 90 0.9 NNE 4 6 2 3 1021.7 1021.7 0.4
28/12:00pm 14.7 14.2 12.0 84 1.5 NNE 6 7 3 4 1021.6 1021.6 0.0
28/11:30am 15.6 14.9 11.4 76 2.3 N 6 9 3 5 1022.0 1022.0 0.0
28/11:00am 15.7 15.9 11.7 77 2.2 N 2 4 1 2 1022.3 1022.3 0.0
28/10:30am 15.2 15.7 12.7 85 1.4 E 2 2 1 1 1022.9 1022.9 0.0
28/10:00am 13.1 13.3 11.7 91 0.7 ENE 2 4 1 2 1022.9 1022.9 0.0
28/09:30am 12.1 12.6 11.5 96 0.3 CALM 0 0 0 0 1023.0 1023.0 0.0
28/09:00am 11.2 11.4 10.7 97 0.3 CALM 0 0 0 0 1023.1 1023.1 0.0
28/08:30am 10.5 10.6 10.3 99 0.1 CALM 0 0 0 0 1023.0 1023.0 0.0
28/08:00am 9.7 9.6 9.4 98 0.1 CALM 0 0 0 0 1023.3 1023.3 0.0
28/07:30am 9.1 8.8 8.8 98 0.1 CALM 0 0 0 0 1023.3 1023.3 0.0
28/07:00am 8.9 8.6 8.5 97 0.2 CALM 0 0 0 0 1023.3 1023.3 0.0
28/06:30am 9.2 9.0 8.9 98 0.1 CALM 0 0 0 0 1023.1 1023.1 0.0
28/06:00am 9.4 9.2 8.9 97 0.2 CALM 0 0 0 0 1022.9 1022.9 0.0
28/05:30am 9.5 9.3 9.2 98 0.1 CALM 0 0 0 0 1022.7 1022.7 0.0
28/05:00am 9.6 9.5 9.3 98 0.1 CALM 0 0 0 0 1023.1 1023.1 0.0
28/04:30am 9.5 9.3 9.0 97 0.2 CALM 0 0 0 0 1022.7 1022.7 0.0
28/04:00am 9.5 9.3 9.2 98 0.1 CALM 0 0 0 0 1022.9 1022.9 0.0
28/03:30am 9.4 9.2 9.1 98 0.1 CALM 0 0 0 0 1023.1 1023.1 0.0
28/03:00am 9.3 9.1 9.0 98 0.1 CALM 0 0 0 0 1023.1 1023.1 0.0
28/02:30am 9.2 9.0 8.9 98 0.1 CALM 0 0 0 0 1023.6 1023.6 0.0
28/02:00am 9.0 8.7 8.7 98 0.1 CALM 0 0 0 0 1023.9 1023.9 0.0
28/01:30am 8.9 8.6 8.6 98 0.1 CALM 0 0 0 0 1023.7 1023.7 0.0
28/01:00am 8.7 8.3 8.4 98 0.1 CALM 0 0 0 0 1023.7 1023.7 0.0
28/12:30am 8.5 8.1 8.2 98 0.1 CALM 0 0 0 0 1024.0 1024.0 0.0
28/12:00am 8.3 7.8 8.0 98 0.1 CALM 0 0 0 0 1024.4 1024.4 0.0
 
Date/Time
EST
Temp
°C
App
Temp
°C
Dew
Point
°C
Rel
Hum
%
Delta-T
°C
Wind Press
QNH
hPa
Press
MSL
hPa
Rain since
9am
mm
Dir  Spd
km/h
Gust
km/h
Spd
kts
Gust
kts
27/11:30pm 7.8 7.2 7.5 98 0.1 CALM 0 0 0 0 1024.8 1024.8 0.0
27/11:00pm 8.0 7.5 7.7 98 0.1 CALM 0 0 0 0 1024.8 1024.8 0.0
27/10:30pm 8.3 7.8 7.7 96 0.3 CALM 0 0 0 0 1024.7 1024.7 0.0
27/10:00pm 8.9 8.6 8.5 97 0.2 CALM 0 0 0 0 1024.5 1024.5 0.0
27/09:30pm 9.5 9.3 8.9 96 0.3 CALM 0 0 0 0 1024.6 1024.6 0.0
27/09:00pm 9.8 9.6 9.2 96 0.3 CALM 0 0 0 0 1024.7 1024.7 0.0
27/08:30pm 10.3 10.3 9.7 96 0.3 CALM 0 0 0 0 1024.9 1024.9 0.0
27/08:00pm 10.4 10.4 9.8 96 0.3 CALM 0 0 0 0 1024.8 1024.8 0.0
27/07:30pm 10.9 11.0 10.1 95 0.4 CALM 0 0 0 0 1024.8 1024.8 0.0
27/07:00pm 10.6 10.5 9.5 93 0.5 CALM 0 0 0 0 1024.6 1024.6 0.0
27/06:30pm 11.1 10.9 10.3 95 0.4 ENE 2 6 1 3 1024.6 1024.6 0.0
27/06:00pm 11.4 11.5 10.0 91 0.7 CALM 0 0 0 0 1024.1 1024.1 0.0
27/05:30pm 11.7 11.8 10.3 91 0.7 CALM 0 0 0 0 1024.1 1024.1 0.0
27/05:00pm 13.1 13.4 10.8 86 1.2 CALM 0 0 0 0 1023.9 1023.9 0.0
27/04:30pm 14.1 14.3 10.7 80 1.8 CALM 0 0 0 0 1024.1 1024.1 0.0
27/04:00pm 15.1 15.3 10.5 74 2.4 CALM 0 0 0 0 1023.9 1023.9 0.0
27/03:30pm 16.0 15.4 10.3 69 3.0 ESE 4 7 2 4 1024.0 1024.0 0.0
27/03:00pm 16.7 16.0 10.1 65 3.5 ESE 4 9 2 5 1024.1 1024.1 0.0
27/02:30pm 16.7 16.0 9.9 64 3.6 ESE 4 9 2 5 1024.4 1024.4 0.0
27/02:00pm 16.8 16.0 9.5 62 3.8 SSE 4 6 2 3 1024.8 1024.8 0.0
27/01:30pm 17.8 16.6 8.1 53 5.0 NE 4 7 2 4 1024.7 1024.7 0.0
27/01:00pm 17.9 17.4 7.9 52 5.1 CALM 0 0 0 0 1024.9 1024.9 0.0
27/12:30pm 17.9 17.6 8.5 54 4.8 CALM 0 2 0 1 1025.1 1025.1 0.0
27/12:00pm 16.9 16.1 8.1 56 4.4 SSE 2 6 1 3 1025.4 1025.4 0.0
27/11:30am 16.6 15.6 8.8 60 4.0 SW 4 6 2 3 1026.2 1026.2 0.0
27/11:00am 15.6 14.8 9.7 68 3.0 SSW 4 6 2 3 1026.5 1026.5 0.0
27/10:30am 13.5 13.6 10.1 80 1.8 CALM 0 0 0 0 1026.9 1026.9 0.0
27/10:00am 12.2 12.3 10.3 88 1.0 CALM 0 0 0 0 1026.8 1026.8 0.0
27/09:30am 11.3 11.4 10.0 92 0.7 CALM 0 0 0 0 1027.1 1027.1 0.0
27/09:00am 8.0 7.5 7.9 99 0.0 CALM 0 0 0 0 1026.8 1026.8 0.2
27/08:30am 5.4 4.4 5.4 100 0.0 CALM 0 0 0 0 1026.7 1026.7 0.2
27/08:00am 3.6 2.2 3.5 99 0.0 CALM 0 0 0 0 1026.5 1026.5 0.2
27/07:30am 1.9 0.2 1.8 99 0.0 CALM 0 0 0 0 1026.4 1026.4 0.2
27/07:00am 1.8 0.1 1.7 99 0.0 CALM 0 0 0 0 1026.4 1026.4 0.2
27/06:30am 1.6 -0.2 1.5 99 0.0 CALM 0 0 0 0 1026.1 1026.1 0.2
27/06:00am 2.0 0.3 1.9 99 0.0 CALM 0 0 0 0 1025.8 1025.8 0.2
27/05:30am 2.1 0.4 2.0 99 0.0 CALM 0 0 0 0 1025.8 1025.8 0.2
27/05:00am 2.2 0.5 2.1 99 0.0 CALM 0 0 0 0 1025.5 1025.5 0.2
27/04:30am 2.4 0.8 2.3 99 0.0 CALM 0 0 0 0 1025.5 1025.5 0.2
27/04:00am 2.5 0.9 2.4 99 0.0 CALM 0 0 0 0 1025.6 1025.6 0.2
27/03:30am 2.5 0.9 2.2 98 0.1 CALM 0 0 0 0 1025.5 1025.5 0.2
27/03:00am 2.9 1.4 2.8 99 0.0 CALM 0 0 0 0 1025.5 1025.5 0.2
27/02:30am 2.8 1.2 2.5 98 0.1 CALM 0 0 0 0 1025.3 1025.3 0.2
27/02:00am 3.0 1.4 2.7 98 0.1 CALM 0 0 0 0 1025.3 1025.3 0.2
27/01:30am 3.3 1.8 3.2 99 0.0 CALM 0 0 0 0 1025.1 1025.1 0.0
27/01:00am 3.5 2.0 3.2 98 0.1 CALM 0 0 0 0 1025.2 1025.2 0.0
27/12:30am 3.8 2.4 3.5 98 0.1 CALM 0 0 0 0 1025.1 1025.1 0.0
27/12:00am 4.0 2.6 3.7 98 0.1 CALM 0 0 0 0 1025.1 1025.1 0.0
 
Date/Time
EST
Temp
°C
App
Temp
°C
Dew
Point
°C
Rel
Hum
%
Delta-T
°C
Wind Press
QNH
hPa
Press
MSL
hPa
Rain since
9am
mm
Dir  Spd
km/h
Gust
km/h
Spd
kts
Gust
kts
26/11:30pm 4.2 2.9 3.9 98 0.1 CALM 0 0 0 0 1025.4 1025.4 0.0
26/11:00pm 4.5 3.2 4.1 97 0.2 CALM 0 0 0 0 1025.7 1025.7 0.0
26/10:30pm 4.8 3.5 4.2 96 0.3 CALM 0 0 0 0 1025.5 1025.5 0.0
26/10:00pm 5.2 4.0 4.8 97 0.2 CALM 0 0 0 0 1025.4 1025.4 0.0
26/09:30pm 5.6 4.5 5.2 97 0.2 CALM 0 0 0 0 1025.3 1025.3 0.0
26/09:00pm 6.0 5.0 5.7 98 0.1 CALM 0 0 0 0 1024.9 1024.9 0.0
26/08:30pm 6.5 5.6 5.9 96 0.3 CALM 0 0 0 0 1024.8 1024.8 0.0
26/08:00pm 6.9 6.0 6.0 94 0.4 CALM 0 0 0 0 1024.7 1024.7 0.0
26/07:30pm 7.4 6.6 6.5 94 0.4 CALM 0 0 0 0 1024.5 1024.5 0.0
26/07:00pm 7.6 6.9 7.0 96 0.3 CALM 0 0 0 0 1024.2 1024.2 0.0
26/06:30pm 8.1 6.7 7.2 94 0.4 N 4 4 2 2 1023.7 1023.7 0.0
26/06:00pm 9.2 8.6 7.5 89 0.8 CALM 0 0 0 0 1023.3 1023.3 0.0
26/05:30pm 10.2 9.6 7.6 84 1.2 CALM 0 0 0 0 1022.9 1022.9 0.0
26/05:00pm 11.7 11.2 7.8 77 1.9 CALM 0 0 0 0 1022.4 1022.4 0.0
26/04:30pm 13.9 13.1 6.3 60 3.6 CALM 0 0 0 0 1022.2 1022.2 0.0
26/04:00pm 17.1 16.2 6.0 48 5.4 CALM 0 4 0 2 1021.9 1021.9 0.0
26/03:30pm 17.2 15.4 5.2 45 5.8 SSW 4 6 2 3 1021.8 1021.8 0.0
26/03:00pm 17.6 15.7 4.9 43 6.0 SSW 4 7 2 4 1021.5 1021.5 0.0
26/02:30pm 17.9 15.6 5.5 44 6.0 WSW 7 9 4 5 1021.4 1021.4 0.0
26/02:00pm 18.1 16.3 5.3 43 6.2 SW 4 9 2 5 1021.4 1021.4 0.0
26/01:30pm 17.7 15.9 5.6 45 5.9 SSW 4 9 2 5 1021.7 1021.7 0.0
26/01:00pm 17.6 15.3 4.9 43 6.0 WSW 6 11 3 6 1021.7 1021.7 0.0
26/12:30pm 17.1 14.8 4.8 44 5.8 SW 6 11 3 6 1021.8 1021.8 0.0
26/12:00pm 16.8 14.4 5.4 47 5.5 SW 7 13 4 7 1022.0 1022.0 0.0
26/11:30am 17.3 15.2 6.5 49 5.3 W 7 15 4 8 1022.2 1022.2 0.0
26/11:00am 16.7 14.6 5.9 49 5.2 WSW 6 9 3 5 1022.5 1022.5 0.0
26/10:30am 15.9 13.8 6.6 54 4.5 SW 7 15 4 8 1022.7 1022.7 0.0
26/10:00am 15.4 14.2 8.2 62 3.6 NW 4 6 2 3 1022.6 1022.6 0.0
26/09:30am 12.8 13.1 10.9 88 1.0 CALM 0 0 0 0 1022.7 1022.7 0.0
26/09:00am 10.6 10.7 10.3 98 0.2 CALM 0 0 0 0 1022.6 1022.6 0.0
26/08:30am 7.3 6.7 7.3 100 0.0 CALM 0 0 0 0 1022.2 1022.2 0.0
26/08:00am 5.1 4.0 5.1 100 0.0 CALM 0 0 0 0 1021.8 1021.8 0.0
26/07:30am 3.0 1.5 2.9 99 0.0 CALM 0 0 0 0 1021.4 1021.4 0.0
26/07:00am 2.7 1.1 2.6 99 0.0 CALM 0 0 0 0 1021.2 1021.2 0.0
26/06:30am 2.4 0.7 2.1 98 0.1 CALM 0 0 0 0 1020.8 1020.8 0.0
26/06:00am 3.1 1.6 3.0 99 0.0 CALM 0 4 0 2 1020.4 1020.4 0.0
26/05:30am 2.7 1.1 2.4 98 0.1 CALM 0 0 0 0 1019.9 1019.9 0.0
26/05:00am 2.9 1.3 2.6 98 0.1 CALM 0 0 0 0 1019.6 1019.6 0.0
26/04:30am 3.1 1.6 3.0 99 0.0 CALM 0 0 0 0 1019.4 1019.4 0.0
26/04:00am 3.2 1.7 3.1 99 0.0 CALM 0 0 0 0 1019.3 1019.3 0.0
26/03:30am 3.6 2.2 3.5 99 0.0 CALM 0 0 0 0 1019.3 1019.3 0.0
26/03:00am 3.4 1.9 3.1 98 0.1 CALM 0 0 0 0 1019.2 1019.2 0.0
26/02:30am 4.0 2.6 3.7 98 0.1 CALM 0 0 0 0 1019.0 1019.0 0.0
26/02:00am 4.0 2.6 3.7 98 0.1 CALM 0 0 0 0 1018.7 1018.7 0.0
26/01:30am 4.2 2.8 3.8 97 0.2 CALM 0 0 0 0 1018.8 1018.8 0.0
26/01:00am 4.6 3.3 4.3 98 0.1 CALM 0 0 0 0 1018.7 1018.7 0.0
26/12:30am 4.7 3.4 4.3 97 0.2 CALM 0 0 0 0 1018.8 1018.8 0.0
26/12:00am 5.2 4.1 4.9 98 0.1 CALM 0 0 0 0 1019.0 1019.0 0.0
 
Date/Time
EST
Temp
°C
App
Temp
°C
Dew
Point
°C
Rel
Hum
%
Delta-T
°C
Wind Press
QNH
hPa
Press
MSL
hPa
Rain since
9am
mm
Dir  Spd
km/h
Gust
km/h
Spd
kts
Gust
kts
25/11:30pm 5.7 4.6 5.3 97 0.2 CALM 0 0 0 0 1019.2 1019.2 0.0
25/11:00pm 6.0 5.0 5.7 98 0.1 CALM 0 0 0 0 1019.3 1019.3 0.0
25/10:30pm 6.3 5.4 5.9 97 0.2 CALM 0 0 0 0 1019.3 1019.3 0.0
25/10:00pm 6.6 5.7 6.2 97 0.2 CALM 0 0 0 0 1019.2 1019.2 0.0
25/09:30pm 6.8 5.9 6.2 96 0.3 CALM 0 0 0 0 1018.9 1018.9 0.0
25/09:00pm 7.3 6.6 6.9 97 0.2 CALM 0 0 0 0 1018.8 1018.8 0.0
25/08:30pm 7.8 7.1 6.9 94 0.4 CALM 0 0 0 0 1018.7 1018.7 0.0
25/08:00pm 8.3 7.7 7.4 94 0.4 CALM 0 0 0 0 1018.7 1018.7 0.0
25/07:30pm 9.1 8.7 8.2 94 0.4 CALM 0 0 0 0 1018.5 1018.5 0.0
25/07:00pm 9.4 8.9 8.0 91 0.7 CALM 0 0 0 0 1018.1 1018.1 0.0

Latest Capital City Observations: Canberra | Sydney | Melbourne | Brisbane | Adelaide | Perth | Hobart | Darwin

Other Formats:

Comma delimited format used in spreadsheet applications
http://www.bom.gov.au/fwo/IDN60901/IDN60901.95767.axf

JavaScript Object Notation format (JSON) in row-major order
http://www.bom.gov.au/fwo/IDN60901/IDN60901.95767.json